sensor_id;sensor_type;location;lat;lon;timestamp;pressure;altitude;pressure_sealevel;temperature;humidity
76753;BME280;65687;51.308;16.916;2023-02-28T00:04:47;101090.99;;;-0.79;77.26
76753;BME280;65687;51.308;16.916;2023-02-28T00:09:53;101087.51;;;-0.79;76.75
76753;BME280;65687;51.308;16.916;2023-02-28T00:14:54;101093.60;;;-0.81;76.90
76753;BME280;65687;51.308;16.916;2023-02-28T00:19:55;101087.14;;;-0.73;76.02
76753;BME280;65687;51.308;16.916;2023-02-28T00:24:57;101087.20;;;-0.65;75.49
76753;BME280;65687;51.308;16.916;2023-02-28T00:29:58;101085.19;;;-0.64;76.12
76753;BME280;65687;51.308;16.916;2023-02-28T00:34:59;101087.03;;;-0.64;76.31
76753;BME280;65687;51.308;16.916;2023-02-28T00:39:59;101085.61;;;-0.66;76.40
76753;BME280;65687;51.308;16.916;2023-02-28T00:45:00;101079.27;;;-0.72;75.79
76753;BME280;65687;51.308;16.916;2023-02-28T00:50:03;101076.70;;;-0.75;75.62
76753;BME280;65687;51.308;16.916;2023-02-28T00:55:04;101078.33;;;-0.79;76.48
76753;BME280;65687;51.308;16.916;2023-02-28T01:00:06;101080.41;;;-0.86;76.60
76753;BME280;65687;51.308;16.916;2023-02-28T01:05:07;101079.01;;;-0.84;76.31
76753;BME280;65687;51.308;16.916;2023-02-28T01:10:09;101080.70;;;-0.79;76.23
76753;BME280;65687;51.308;16.916;2023-02-28T01:15:11;101073.15;;;-0.71;76.13
76753;BME280;65687;51.308;16.916;2023-02-28T01:20:12;101072.13;;;-0.72;76.02
76753;BME280;65687;51.308;16.916;2023-02-28T01:25:13;101071.02;;;-0.72;76.19
76753;BME280;65687;51.308;16.916;2023-02-28T01:30:14;101074.56;;;-0.76;75.93
76753;BME280;65687;51.308;16.916;2023-02-28T01:35:15;101073.55;;;-0.82;76.00
76753;BME280;65687;51.308;16.916;2023-02-28T01:40:15;101072.70;;;-0.84;76.32
76753;BME280;65687;51.308;16.916;2023-02-28T01:45:30;101074.26;;;-0.85;75.75
76753;BME280;65687;51.308;16.916;2023-02-28T01:50:35;101075.88;;;-0.88;77.06
76753;BME280;65687;51.308;16.916;2023-02-28T01:55:37;101067.86;;;-0.85;76.47
76753;BME280;65687;51.308;16.916;2023-02-28T02:00:40;101066.02;;;-0.77;76.40
76753;BME280;65687;51.308;16.916;2023-02-28T02:05:43;101067.39;;;-0.72;76.27
76753;BME280;65687;51.308;16.916;2023-02-28T02:10:52;101064.42;;;-0.70;75.64
76753;BME280;65687;51.308;16.916;2023-02-28T02:31:58;101063.91;;;-0.83;75.78
76753;BME280;65687;51.308;16.916;2023-02-28T02:37:10;101064.45;;;-0.86;76.29
76753;BME280;65687;51.308;16.916;2023-02-28T02:42:21;101062.74;;;-0.87;76.65
76753;BME280;65687;51.308;16.916;2023-02-28T02:47:28;101061.77;;;-0.91;76.94
76753;BME280;65687;51.308;16.916;2023-02-28T02:52:53;101058.65;;;-0.91;76.84
76753;BME280;65687;51.308;16.916;2023-02-28T02:58:01;101054.69;;;-0.90;76.95
76753;BME280;65687;51.308;16.916;2023-02-28T03:03:04;101058.77;;;-0.80;76.08
76753;BME280;65687;51.308;16.916;2023-02-28T03:08:07;101059.55;;;-0.86;76.95
76753;BME280;65687;51.308;16.916;2023-02-28T03:13:12;101060.29;;;-0.91;77.11
76753;BME280;65687;51.308;16.916;2023-02-28T03:23:42;101063.97;;;-1.09;77.07
76753;BME280;65687;51.308;16.916;2023-02-28T03:34:14;101070.66;;;-1.29;77.87
76753;BME280;65687;51.308;16.916;2023-02-28T03:39:21;101073.67;;;-1.35;78.35
76753;BME280;65687;51.308;16.916;2023-02-28T03:44:29;101077.11;;;-1.33;78.39
76753;BME280;65687;51.308;16.916;2023-02-28T03:49:39;101076.64;;;-1.25;78.29
76753;BME280;65687;51.308;16.916;2023-02-28T03:54:47;101071.23;;;-1.16;77.99
76753;BME280;65687;51.308;16.916;2023-02-28T03:59:56;101076.55;;;-1.14;77.32
76753;BME280;65687;51.308;16.916;2023-02-28T04:05:00;101080.81;;;-1.18;77.16
76753;BME280;65687;51.308;16.916;2023-02-28T04:10:02;101081.95;;;-1.21;77.44
76753;BME280;65687;51.308;16.916;2023-02-28T04:15:04;101077.30;;;-1.21;77.74
76753;BME280;65687;51.308;16.916;2023-02-28T04:20:06;101086.45;;;-1.25;77.40
76753;BME280;65687;51.308;16.916;2023-02-28T04:25:10;101091.63;;;-1.28;77.91
76753;BME280;65687;51.308;16.916;2023-02-28T04:30:11;101095.28;;;-1.23;77.80
76753;BME280;65687;51.308;16.916;2023-02-28T04:35:12;101099.41;;;-1.18;77.67
76753;BME280;65687;51.308;16.916;2023-02-28T04:40:13;101096.91;;;-1.13;77.50
76753;BME280;65687;51.308;16.916;2023-02-28T04:45:14;101099.67;;;-1.14;77.47
76753;BME280;65687;51.308;16.916;2023-02-28T04:50:15;101106.80;;;-1.15;77.26
76753;BME280;65687;51.308;16.916;2023-02-28T04:55:16;101109.66;;;-1.17;77.15
76753;BME280;65687;51.308;16.916;2023-02-28T05:00:17;101105.07;;;-1.22;77.84
76753;BME280;65687;51.308;16.916;2023-02-28T05:05:18;101103.63;;;-1.16;77.48
76753;BME280;65687;51.308;16.916;2023-02-28T05:10:19;101106.20;;;-1.08;77.47
76753;BME280;65687;51.308;16.916;2023-02-28T05:15:20;101112.16;;;-1.01;77.79
76753;BME280;65687;51.308;16.916;2023-02-28T05:20:21;101111.07;;;-0.99;77.35
76753;BME280;65687;51.308;16.916;2023-02-28T05:25:22;101110.46;;;-1.00;77.96
76753;BME280;65687;51.308;16.916;2023-02-28T05:30:23;101113.35;;;-1.09;77.75
76753;BME280;65687;51.308;16.916;2023-02-28T05:35:24;101114.58;;;-1.15;77.63
76753;BME280;65687;51.308;16.916;2023-02-28T05:40:25;101118.86;;;-1.15;77.72
76753;BME280;65687;51.308;16.916;2023-02-28T05:45:26;101124.09;;;-1.19;77.63
76753;BME280;65687;51.308;16.916;2023-02-28T05:50:27;101136.80;;;-1.21;77.87
76753;BME280;65687;51.308;16.916;2023-02-28T05:55:28;101135.45;;;-1.19;77.87
76753;BME280;65687;51.308;16.916;2023-02-28T06:00:29;101139.19;;;-1.13;77.91
76753;BME280;65687;51.308;16.916;2023-02-28T06:05:30;101143.98;;;-1.13;77.41
76753;BME280;65687;51.308;16.916;2023-02-28T06:10:31;101144.90;;;-1.19;77.68
76753;BME280;65687;51.308;16.916;2023-02-28T06:15:32;101153.88;;;-1.29;78.07
76753;BME280;65687;51.308;16.916;2023-02-28T06:20:33;101162.94;;;-1.42;78.32
76753;BME280;65687;51.308;16.916;2023-02-28T06:25:35;101166.14;;;-1.50;78.56
76753;BME280;65687;51.308;16.916;2023-02-28T06:30:37;101169.22;;;-1.57;79.04
76753;BME280;65687;51.308;16.916;2023-02-28T06:35:38;101170.80;;;-1.65;79.70
76753;BME280;65687;51.308;16.916;2023-02-28T06:40:39;101172.71;;;-1.63;79.61
76753;BME280;65687;51.308;16.916;2023-02-28T06:45:43;101175.75;;;-1.61;80.25
76753;BME280;65687;51.308;16.916;2023-02-28T06:50:44;101177.20;;;-1.55;80.07
76753;BME280;65687;51.308;16.916;2023-02-28T06:55:45;101181.35;;;-1.52;80.16
76753;BME280;65687;51.308;16.916;2023-02-28T07:00:50;101188.97;;;-1.54;80.34
76753;BME280;65687;51.308;16.916;2023-02-28T07:05:51;101187.52;;;-1.53;80.40
76753;BME280;65687;51.308;16.916;2023-02-28T07:10:56;101185.30;;;-1.56;80.86
76753;BME280;65687;51.308;16.916;2023-02-28T07:16:04;101187.95;;;-1.48;81.26
76753;BME280;65687;51.308;16.916;2023-02-28T07:21:08;101192.40;;;-1.38;81.28
76753;BME280;65687;51.308;16.916;2023-02-28T07:26:13;101196.82;;;-1.26;81.00
76753;BME280;65687;51.308;16.916;2023-02-28T07:31:16;101196.77;;;-1.06;80.66
76753;BME280;65687;51.308;16.916;2023-02-28T07:36:17;101196.36;;;-0.86;79.66
76753;BME280;65687;51.308;16.916;2023-02-28T07:41:22;101199.23;;;-0.71;79.67
76753;BME280;65687;51.308;16.916;2023-02-28T07:46:25;101201.95;;;-0.61;79.76
76753;BME280;65687;51.308;16.916;2023-02-28T07:51:26;101201.58;;;-0.55;79.28
76753;BME280;65687;51.308;16.916;2023-02-28T07:56:27;101199.66;;;-0.45;79.30
76753;BME280;65687;51.308;16.916;2023-02-28T08:01:28;101201.10;;;-0.26;78.40
76753;BME280;65687;51.308;16.916;2023-02-28T08:06:29;101202.20;;;-0.09;77.56
76753;BME280;65687;51.308;16.916;2023-02-28T08:11:30;101196.95;;;0.12;77.42
76753;BME280;65687;51.308;16.916;2023-02-28T08:16:31;101197.19;;;0.33;76.66
76753;BME280;65687;51.308;16.916;2023-02-28T08:21:32;101193.33;;;0.53;75.88
76753;BME280;65687;51.308;16.916;2023-02-28T08:26:33;101192.15;;;0.72;74.35
76753;BME280;65687;51.308;16.916;2023-02-28T08:31:34;101193.03;;;0.94;73.30
76753;BME280;65687;51.308;16.916;2023-02-28T08:36:36;101191.45;;;1.25;72.53
76753;BME280;65687;51.308;16.916;2023-02-28T08:41:37;101194.47;;;1.53;71.34
76753;BME280;65687;51.308;16.916;2023-02-28T08:46:38;101195.56;;;1.75;70.18
76753;BME280;65687;51.308;16.916;2023-02-28T08:51:39;101197.55;;;1.93;68.73
76753;BME280;65687;51.308;16.916;2023-02-28T08:56:40;101196.13;;;1.92;66.49
76753;BME280;65687;51.308;16.916;2023-02-28T09:01:41;101195.50;;;1.90;65.22
76753;BME280;65687;51.308;16.916;2023-02-28T09:06:44;101189.21;;;1.98;64.32
76753;BME280;65687;51.308;16.916;2023-02-28T09:11:45;101185.98;;;2.06;63.20
76753;BME280;65687;51.308;16.916;2023-02-28T09:16:46;101186.71;;;2.10;61.82
76753;BME280;65687;51.308;16.916;2023-02-28T09:21:47;101186.13;;;2.12;61.40
76753;BME280;65687;51.308;16.916;2023-02-28T09:26:48;101184.24;;;2.11;60.65
76753;BME280;65687;51.308;16.916;2023-02-28T09:31:49;101188.06;;;1.97;60.13
76753;BME280;65687;51.308;16.916;2023-02-28T09:36:50;101185.23;;;1.82;60.80
76753;BME280;65687;51.308;16.916;2023-02-28T09:41:55;101185.87;;;1.80;61.94
76753;BME280;65687;51.308;16.916;2023-02-28T09:47:00;101179.98;;;1.69;60.78
76753;BME280;65687;51.308;16.916;2023-02-28T09:52:09;101180.23;;;1.63;60.42
76753;BME280;65687;51.308;16.916;2023-02-28T10:12:57;101193.20;;;2.22;57.39
76753;BME280;65687;51.308;16.916;2023-02-28T10:18:03;101184.80;;;2.17;58.13
76753;BME280;65687;51.308;16.916;2023-02-28T10:28:21;101178.27;;;2.79;56.76
76753;BME280;65687;51.308;16.916;2023-02-28T10:33:31;101174.52;;;3.05;57.60
76753;BME280;65687;51.308;16.916;2023-02-28T10:38:34;101176.32;;;3.28;56.42
76753;BME280;65687;51.308;16.916;2023-02-28T10:43:37;101166.45;;;3.39;56.34
76753;BME280;65687;51.308;16.916;2023-02-28T10:49:13;101152.15;;;3.55;55.93
76753;BME280;65687;51.308;16.916;2023-02-28T10:54:16;101155.66;;;3.64;55.23
76753;BME280;65687;51.308;16.916;2023-02-28T10:59:30;101156.09;;;3.54;56.33
76753;BME280;65687;51.308;16.916;2023-02-28T11:04:33;101159.28;;;3.96;56.78
76753;BME280;65687;51.308;16.916;2023-02-28T11:09:40;101163.73;;;4.16;55.94
76753;BME280;65687;51.308;16.916;2023-02-28T11:14:54;101158.52;;;4.23;55.67
76753;BME280;65687;51.308;16.916;2023-02-28T11:20:04;101165.43;;;3.94;55.10
76753;BME280;65687;51.308;16.916;2023-02-28T11:25:10;101160.16;;;3.87;55.42
76753;BME280;65687;51.308;16.916;2023-02-28T11:35:51;101153.98;;;3.46;55.11
76753;BME280;65687;51.308;16.916;2023-02-28T11:51:35;101140.45;;;4.55;53.29
76753;BME280;65687;51.308;16.916;2023-02-28T11:56:46;101138.50;;;4.62;52.19
76753;BME280;65687;51.308;16.916;2023-02-28T12:07:39;101135.40;;;4.06;52.61
76753;BME280;65687;51.308;16.916;2023-02-28T12:23:26;101119.98;;;3.75;53.45
76753;BME280;65687;51.308;16.916;2023-02-28T12:28:40;101116.35;;;3.69;53.38
76753;BME280;65687;51.308;16.916;2023-02-28T12:33:51;101108.10;;;3.60;54.01
76753;BME280;65687;51.308;16.916;2023-02-28T12:38:56;101108.34;;;3.54;53.27
76753;BME280;65687;51.308;16.916;2023-02-28T12:44:05;101102.80;;;3.38;53.39
76753;BME280;65687;51.308;16.916;2023-02-28T12:49:10;101093.07;;;3.26;53.84
76753;BME280;65687;51.308;16.916;2023-02-28T12:59:49;101085.70;;;3.24;54.39
76753;BME280;65687;51.308;16.916;2023-02-28T13:09:57;101080.18;;;3.12;54.34
76753;BME280;65687;51.308;16.916;2023-02-28T13:15:18;101085.55;;;3.01;54.64
76753;BME280;65687;51.308;16.916;2023-02-28T13:20:33;101081.48;;;3.00;54.89
76753;BME280;65687;51.308;16.916;2023-02-28T13:46:31;101075.51;;;2.66;53.83
76753;BME280;65687;51.308;16.916;2023-02-28T13:51:45;101072.41;;;2.62;54.41
76753;BME280;65687;51.308;16.916;2023-02-28T13:57:01;101064.98;;;2.63;54.14
76753;BME280;65687;51.308;16.916;2023-02-28T14:02:26;101060.41;;;2.68;55.14
76753;BME280;65687;51.308;16.916;2023-02-28T14:07:39;101058.80;;;2.77;55.18
76753;BME280;65687;51.308;16.916;2023-02-28T14:13:01;101052.59;;;2.71;54.49
76753;BME280;65687;51.308;16.916;2023-02-28T14:18:10;101051.16;;;2.64;54.73
76753;BME280;65687;51.308;16.916;2023-02-28T14:23:25;101050.92;;;2.64;54.61
76753;BME280;65687;51.308;16.916;2023-02-28T14:29:14;101044.41;;;2.64;53.92
76753;BME280;65687;51.308;16.916;2023-02-28T14:39:22;101037.69;;;2.65;54.62
76753;BME280;65687;51.308;16.916;2023-02-28T14:44:27;101033.36;;;2.69;54.72
76753;BME280;65687;51.308;16.916;2023-02-28T14:49:33;101033.77;;;2.64;54.35
76753;BME280;65687;51.308;16.916;2023-02-28T14:54:39;101035.33;;;2.64;54.81
76753;BME280;65687;51.308;16.916;2023-02-28T14:59:40;101037.73;;;2.65;55.03
76753;BME280;65687;51.308;16.916;2023-02-28T15:04:41;101038.73;;;2.65;55.55
76753;BME280;65687;51.308;16.916;2023-02-28T15:09:42;101037.91;;;2.67;55.82
76753;BME280;65687;51.308;16.916;2023-02-28T15:14:44;101037.91;;;2.56;55.28
76753;BME280;65687;51.308;16.916;2023-02-28T15:19:48;101035.23;;;2.48;55.76
76753;BME280;65687;51.308;16.916;2023-02-28T15:24:52;101036.45;;;2.44;55.93
76753;BME280;65687;51.308;16.916;2023-02-28T15:29:56;101033.63;;;2.40;55.44
76753;BME280;65687;51.308;16.916;2023-02-28T15:34:59;101030.20;;;2.35;55.50
76753;BME280;65687;51.308;16.916;2023-02-28T15:40:27;101024.89;;;2.29;56.37
76753;BME280;65687;51.308;16.916;2023-02-28T15:46:18;101021.90;;;2.22;56.65
76753;BME280;65687;51.308;16.916;2023-02-28T15:51:06;101022.05;;;2.15;57.65
76753;BME280;65687;51.308;16.916;2023-02-28T15:56:50;101019.66;;;2.09;58.00
76753;BME280;65687;51.308;16.916;2023-02-28T16:02:04;101025.69;;;2.01;57.99
76753;BME280;65687;51.308;16.916;2023-02-28T16:07:17;101032.12;;;1.91;58.72
76753;BME280;65687;51.308;16.916;2023-02-28T16:12:20;101036.92;;;1.87;58.82
76753;BME280;65687;51.308;16.916;2023-02-28T16:17:30;101037.81;;;1.79;58.99
76753;BME280;65687;51.308;16.916;2023-02-28T16:22:31;101034.41;;;1.74;60.40
76753;BME280;65687;51.308;16.916;2023-02-28T16:27:36;101036.52;;;1.65;61.38
76753;BME280;65687;51.308;16.916;2023-02-28T16:32:37;101042.20;;;1.47;62.60
76753;BME280;65687;51.308;16.916;2023-02-28T16:37:38;101045.36;;;1.30;64.00
76753;BME280;65687;51.308;16.916;2023-02-28T16:42:39;101051.05;;;1.13;64.05
76753;BME280;65687;51.308;16.916;2023-02-28T16:47:41;101054.83;;;0.96;64.38
76753;BME280;65687;51.308;16.916;2023-02-28T16:52:42;101053.89;;;0.79;63.69
76753;BME280;65687;51.308;16.916;2023-02-28T16:57:43;101052.08;;;0.58;65.45
76753;BME280;65687;51.308;16.916;2023-02-28T17:02:45;101055.52;;;0.36;66.23
76753;BME280;65687;51.308;16.916;2023-02-28T17:07:47;101059.93;;;0.17;65.91
76753;BME280;65687;51.308;16.916;2023-02-28T17:12:49;101065.00;;;0.00;66.14
76753;BME280;65687;51.308;16.916;2023-02-28T17:17:50;101069.20;;;-0.13;66.03
76753;BME280;65687;51.308;16.916;2023-02-28T17:22:51;101070.07;;;-0.21;65.95
76753;BME280;65687;51.308;16.916;2023-02-28T17:27:52;101072.55;;;-0.29;66.56
76753;BME280;65687;51.308;16.916;2023-02-28T17:32:54;101073.81;;;-0.40;67.76
76753;BME280;65687;51.308;16.916;2023-02-28T17:37:55;101076.59;;;-0.54;67.70
76753;BME280;65687;51.308;16.916;2023-02-28T17:42:56;101082.30;;;-0.65;68.42
76753;BME280;65687;51.308;16.916;2023-02-28T17:47:58;101088.83;;;-0.75;68.52
76753;BME280;65687;51.308;16.916;2023-02-28T17:52:59;101090.51;;;-0.85;69.43
76753;BME280;65687;51.308;16.916;2023-02-28T17:58:00;101094.73;;;-0.93;69.98
76753;BME280;65687;51.308;16.916;2023-02-28T18:03:01;101092.10;;;-1.02;70.19
76753;BME280;65687;51.308;16.916;2023-02-28T18:08:02;101088.88;;;-1.09;70.79
76753;BME280;65687;51.308;16.916;2023-02-28T18:13:03;101086.34;;;-1.16;71.39
76753;BME280;65687;51.308;16.916;2023-02-28T18:18:04;101085.59;;;-1.19;71.35
76753;BME280;65687;51.308;16.916;2023-02-28T18:23:07;101084.17;;;-1.18;70.77
76753;BME280;65687;51.308;16.916;2023-02-28T18:28:08;101085.84;;;-1.23;70.70
76753;BME280;65687;51.308;16.916;2023-02-28T18:33:08;101077.06;;;-1.28;70.41
76753;BME280;65687;51.308;16.916;2023-02-28T18:38:13;101075.89;;;-1.32;71.17
76753;BME280;65687;51.308;16.916;2023-02-28T18:43:14;101081.16;;;-1.35;70.88
76753;BME280;65687;51.308;16.916;2023-02-28T18:48:15;101083.66;;;-1.38;70.55
76753;BME280;65687;51.308;16.916;2023-02-28T18:53:19;101086.75;;;-1.41;70.71
76753;BME280;65687;51.308;16.916;2023-02-28T18:58:19;101088.41;;;-1.46;71.55
76753;BME280;65687;51.308;16.916;2023-02-28T19:03:20;101091.29;;;-1.48;70.57
76753;BME280;65687;51.308;16.916;2023-02-28T19:08:22;101087.66;;;-1.50;70.56
76753;BME280;65687;51.308;16.916;2023-02-28T19:13:23;101086.11;;;-1.55;70.38
76753;BME280;65687;51.308;16.916;2023-02-28T19:18:23;101083.48;;;-1.66;70.12
76753;BME280;65687;51.308;16.916;2023-02-28T19:23:25;101086.98;;;-1.73;70.39
76753;BME280;65687;51.308;16.916;2023-02-28T19:28:28;101087.98;;;-1.78;71.08
76753;BME280;65687;51.308;16.916;2023-02-28T19:33:30;101087.95;;;-1.71;71.40
76753;BME280;65687;51.308;16.916;2023-02-28T19:38:31;101087.61;;;-1.61;71.61
76753;BME280;65687;51.308;16.916;2023-02-28T19:43:32;101093.66;;;-1.63;71.51
76753;BME280;65687;51.308;16.916;2023-02-28T19:48:33;101094.06;;;-1.69;71.06
76753;BME280;65687;51.308;16.916;2023-02-28T19:53:36;101096.68;;;-1.75;71.46
76753;BME280;65687;51.308;16.916;2023-02-28T19:58:38;101101.54;;;-1.77;71.42
76753;BME280;65687;51.308;16.916;2023-02-28T20:03:39;101101.59;;;-1.79;70.95
76753;BME280;65687;51.308;16.916;2023-02-28T20:08:40;101092.75;;;-1.92;71.25
76753;BME280;65687;51.308;16.916;2023-02-28T20:13:42;101085.33;;;-1.97;71.65
76753;BME280;65687;51.308;16.916;2023-02-28T20:18:44;101087.27;;;-2.01;71.10
76753;BME280;65687;51.308;16.916;2023-02-28T20:23:50;101086.81;;;-2.13;72.16
76753;BME280;65687;51.308;16.916;2023-02-28T20:28:51;101084.17;;;-2.21;72.60
76753;BME280;65687;51.308;16.916;2023-02-28T20:33:52;101084.80;;;-2.21;72.79
76753;BME280;65687;51.308;16.916;2023-02-28T20:38:53;101079.85;;;-2.24;72.96
76753;BME280;65687;51.308;16.916;2023-02-28T20:43:55;101077.95;;;-2.22;72.35
76753;BME280;65687;51.308;16.916;2023-02-28T20:49:01;101085.42;;;-2.26;72.61
76753;BME280;65687;51.308;16.916;2023-02-28T20:54:02;101083.13;;;-2.23;73.39
76753;BME280;65687;51.308;16.916;2023-02-28T20:59:04;101085.61;;;-2.20;72.99
76753;BME280;65687;51.308;16.916;2023-02-28T21:04:06;101082.06;;;-2.22;72.41
76753;BME280;65687;51.308;16.916;2023-02-28T21:09:08;101087.18;;;-2.30;72.57
76753;BME280;65687;51.308;16.916;2023-02-28T21:14:13;101082.79;;;-2.36;72.69
76753;BME280;65687;51.308;16.916;2023-02-28T21:19:14;101079.56;;;-2.44;72.75
76753;BME280;65687;51.308;16.916;2023-02-28T21:24:18;101080.79;;;-2.52;73.21
76753;BME280;65687;51.308;16.916;2023-02-28T21:29:19;101081.85;;;-2.61;73.82
76753;BME280;65687;51.308;16.916;2023-02-28T21:34:19;101081.55;;;-2.74;74.23
76753;BME280;65687;51.308;16.916;2023-02-28T21:39:25;101074.50;;;-2.80;74.40
76753;BME280;65687;51.308;16.916;2023-02-28T21:44:31;101074.35;;;-2.87;74.64
76753;BME280;65687;51.308;16.916;2023-02-28T21:49:33;101071.80;;;-2.85;74.39
76753;BME280;65687;51.308;16.916;2023-02-28T21:54:34;101074.65;;;-2.80;74.25
76753;BME280;65687;51.308;16.916;2023-02-28T21:59:35;101080.38;;;-2.79;74.41
76753;BME280;65687;51.308;16.916;2023-02-28T22:04:36;101078.31;;;-2.82;74.41
76753;BME280;65687;51.308;16.916;2023-02-28T22:09:38;101084.91;;;-2.87;74.34
76753;BME280;65687;51.308;16.916;2023-02-28T22:14:39;101100.64;;;-2.92;74.19
76753;BME280;65687;51.308;16.916;2023-02-28T22:19:41;101104.98;;;-3.09;74.79
76753;BME280;65687;51.308;16.916;2023-02-28T22:24:42;101113.45;;;-3.15;75.03
76753;BME280;65687;51.308;16.916;2023-02-28T22:29:43;101115.61;;;-3.19;75.19
76753;BME280;65687;51.308;16.916;2023-02-28T22:34:44;101115.75;;;-3.27;75.74
76753;BME280;65687;51.308;16.916;2023-02-28T22:39:45;101110.07;;;-3.27;75.91
76753;BME280;65687;51.308;16.916;2023-02-28T22:44:49;101116.06;;;-3.30;76.16
76753;BME280;65687;51.308;16.916;2023-02-28T22:49:49;101112.15;;;-3.20;75.92
76753;BME280;65687;51.308;16.916;2023-02-28T22:54:50;101109.03;;;-3.10;75.81
76753;BME280;65687;51.308;16.916;2023-02-28T22:59:52;101117.23;;;-3.01;75.78
76753;BME280;65687;51.308;16.916;2023-02-28T23:04:54;101112.77;;;-3.10;76.26
76753;BME280;65687;51.308;16.916;2023-02-28T23:09:55;101112.26;;;-3.12;76.06
76753;BME280;65687;51.308;16.916;2023-02-28T23:14:56;101119.63;;;-3.14;75.97
76753;BME280;65687;51.308;16.916;2023-02-28T23:19:56;101121.04;;;-3.19;75.83
76753;BME280;65687;51.308;16.916;2023-02-28T23:24:57;101129.52;;;-3.26;75.83
76753;BME280;65687;51.308;16.916;2023-02-28T23:29:58;101133.27;;;-3.37;76.16
76753;BME280;65687;51.308;16.916;2023-02-28T23:34:59;101122.73;;;-3.51;76.64
76753;BME280;65687;51.308;16.916;2023-02-28T23:40:00;101117.46;;;-3.57;76.64
76753;BME280;65687;51.308;16.916;2023-02-28T23:45:01;101126.09;;;-3.65;76.92
76753;BME280;65687;51.308;16.916;2023-02-28T23:50:02;101122.66;;;-3.59;77.07
76753;BME280;65687;51.308;16.916;2023-02-28T23:55:04;101118.57;;;-3.47;76.72
